Time;durP1;ratioP1;P1;durP2;ratioP2;P2;SDS_P1;SDS_P2;PMS_P1;PMS_P2;Temp;Humidity;BMP_temperature;BMP_pressure;BME280_temperature;BME280_humidity;BME280_pressure;Samples;Min_cycle;Max_cycle;Signal;HPM_P1;HPM_P2
2022/04/17 00:00:37;;;;;;;10.02;7.13;;;;;;;4.90;62.06;97476.22;5046979;28;20045;-75
2022/04/17 00:03:05;;;;;;;10.65;6.85;;;;;;;4.88;62.11;97484.59;5047746;28;20049;-73
2022/04/17 00:05:31;;;;;;;11.13;6.57;;;;;;;4.87;61.50;97477.56;5046625;28;20056;-74
2022/04/17 00:07:58;;;;;;;10.25;6.20;;;;;;;4.88;61.08;97478.38;5047941;28;20053;-74
2022/04/17 00:10:26;;;;;;;9.93;6.57;;;;;;;4.84;60.47;97478.06;5046353;28;20049;-74
2022/04/17 00:12:52;;;;;;;9.93;6.43;;;;;;;4.80;60.20;97476.94;5047251;28;20053;-73
2022/04/17 00:15:19;;;;;;;9.13;6.45;;;;;;;4.80;60.43;97465.31;5045886;28;20554;-73
2022/04/17 00:17:45;;;;;;;9.27;6.05;;;;;;;4.78;61.34;97462.91;5046725;28;20094;-74
2022/04/17 00:20:12;;;;;;;10.63;6.82;;;;;;;4.77;61.12;97461.28;5047019;28;20513;-73
2022/04/17 00:22:39;;;;;;;9.77;6.72;;;;;;;4.74;60.83;97459.06;5046763;28;20044;-74
2022/04/17 00:25:07;;;;;;;9.98;6.53;;;;;;;4.72;60.75;97464.72;5047085;28;20041;-74
2022/04/17 00:27:36;;;;;;;11.93;6.90;;;;;;;4.64;60.50;97456.25;5046514;28;20152;-73
2022/04/17 00:30:03;;;;;;;11.05;6.40;;;;;;;4.63;60.49;97450.03;5047307;28;20087;-73
2022/04/17 00:32:31;;;;;;;11.90;6.75;;;;;;;4.61;61.76;97451.38;5046656;28;20136;-74
2022/04/17 00:34:57;;;;;;;13.88;8.07;;;;;;;4.58;62.06;97451.88;5047091;28;20053;-74
2022/04/17 00:37:24;;;;;;;11.73;7.40;;;;;;;4.56;61.97;97446.75;5046084;28;20052;-74
2022/04/17 00:39:51;;;;;;;11.70;7.65;;;;;;;4.54;61.75;97445.34;5046563;28;20049;-74
2022/04/17 00:42:18;;;;;;;10.43;7.40;;;;;;;4.54;61.83;97450.75;5046337;28;20053;-73
2022/04/17 00:44:46;;;;;;;10.27;7.05;;;;;;;4.52;61.95;97448.31;5046338;28;20045;-75
2022/04/17 00:47:16;;;;;;;11.30;7.22;;;;;;;4.51;62.08;97443.16;5046180;28;20450;-73
2022/04/17 00:49:43;;;;;;;11.52;7.47;;;;;;;4.49;62.60;97438.03;5046404;28;20041;-74
2022/04/17 00:52:10;;;;;;;10.88;7.60;;;;;;;4.50;62.60;97438.84;5046904;28;20080;-73
2022/04/17 00:54:40;;;;;;;11.43;6.30;;;;;;;4.50;62.14;97436.97;5046155;28;20312;-73
2022/04/17 00:57:08;;;;;;;8.27;5.90;;;;;;;4.51;62.21;97435.06;5046332;28;20084;-73
2022/04/17 00:59:34;;;;;;;8.95;6.30;;;;;;;4.49;63.08;97434.50;5046234;28;20048;-74
2022/04/17 01:02:05;;;;;;;10.48;6.90;;;;;;;4.49;63.28;97431.81;5046557;28;20110;-75
2022/04/17 01:04:32;;;;;;;8.88;6.70;;;;;;;4.48;63.00;97435.56;5046340;28;20110;-73
2022/04/17 01:06:58;;;;;;;10.70;6.40;;;;;;;4.44;62.52;97428.00;5045628;28;20052;-74
2022/04/17 01:09:25;;;;;;;8.95;6.40;;;;;;;4.43;62.64;97423.66;5045866;28;20052;-73
2022/04/17 01:11:52;;;;;;;11.10;6.03;;;;;;;4.43;61.87;97423.66;5045813;28;20053;-74
2022/04/17 01:14:20;;;;;;;13.13;6.10;;;;;;;4.41;60.81;97425.78;5046190;28;20045;-73
2022/04/17 01:16:47;;;;;;;12.40;6.43;;;;;;;4.38;60.79;97426.28;5045226;28;20068;-73
2022/04/17 01:19:14;;;;;;;10.07;6.50;;;;;;;4.31;61.39;97425.66;5045790;28;20051;-73
2022/04/17 01:21:46;;;;;;;9.52;7.03;;;;;;;4.27;61.61;97421.03;5045355;28;20055;-74
2022/04/17 01:27:01;;;;;;;8.88;6.63;;;;;;;4.17;61.58;97414.44;5044848;28;20056;-73
2022/04/17 01:29:31;;;;;;;12.10;7.22;;;;;;;4.13;61.68;97417.91;5045178;28;20574;-74
2022/04/17 01:31:58;;;;;;;10.23;6.80;;;;;;;4.07;62.25;97417.03;5046130;28;20049;-74
2022/04/17 01:34:25;;;;;;;11.77;6.80;;;;;;;4.05;62.93;97412.94;5045108;28;20059;-73
2022/04/17 01:36:53;;;;;;;10.45;7.00;;;;;;;4.03;63.20;97415.91;5046191;28;20171;-74
2022/04/17 01:39:20;;;;;;;10.30;7.00;;;;;;;4.00;63.73;97419.09;5044803;28;20049;-74
2022/04/17 01:41:47;;;;;;;9.75;7.07;;;;;;;3.99;63.59;97408.56;5045551;28;20053;-73
2022/04/17 01:44:16;;;;;;;13.10;7.40;;;;;;;3.96;63.71;97406.34;5045113;28;20111;-74
2022/04/17 01:46:42;;;;;;;9.65;6.93;;;;;;;3.96;63.83;97406.34;5044805;28;20052;-73
2022/04/17 01:49:09;;;;;;;10.52;6.57;;;;;;;3.93;63.16;97403.09;5045261;28;20615;-74
2022/04/17 01:51:38;;;;;;;10.52;7.30;;;;;;;3.91;62.66;97405.25;5044928;28;20049;-73
2022/04/17 01:54:06;;;;;;;11.88;6.35;;;;;;;3.91;63.16;97399.84;5044984;28;20057;-74
2022/04/17 01:56:33;;;;;;;12.10;6.78;;;;;;;3.89;62.33;97406.53;5045009;28;20132;-74
2022/04/17 01:58:59;;;;;;;9.52;6.70;;;;;;;3.87;62.67;97404.09;5045555;28;20454;-73
2022/04/17 02:01:26;;;;;;;11.15;6.68;;;;;;;3.85;62.59;97398.13;5044045;28;20087;-73
2022/04/17 02:03:53;;;;;;;9.50;6.32;;;;;;;3.81;63.25;97394.34;5045590;28;20053;-74
2022/04/17 02:06:19;;;;;;;10.25;6.15;;;;;;;3.79;62.80;97395.63;5044489;28;20640;-73
2022/04/17 02:08:46;;;;;;;10.75;6.18;;;;;;;3.77;62.02;97390.50;5039111;28;20053;-74
2022/04/17 02:11:14;;;;;;;9.13;6.50;;;;;;;3.76;61.90;97386.19;5024899;28;20072;-73
2022/04/17 02:13:41;;;;;;;10.75;6.55;;;;;;;3.72;62.26;97374.25;5024921;28;20510;-73
2022/04/17 02:16:07;;;;;;;9.73;6.75;;;;;;;3.69;62.50;97380.13;5025008;28;20056;-74
2022/04/17 02:18:34;;;;;;;10.88;6.47;;;;;;;3.68;62.30;97381.22;5024626;28;20057;-74
2022/04/17 02:21:01;;;;;;;10.57;6.57;;;;;;;3.63;62.58;97381.94;5025310;28;20722;-73
2022/04/17 02:23:27;;;;;;;11.02;6.25;;;;;;;3.64;63.07;97377.38;5024503;28;20137;-73
2022/04/17 02:25:54;;;;;;;9.95;6.60;;;;;;;3.61;63.43;97377.88;5025549;28;20053;-73
2022/04/17 02:28:22;;;;;;;8.90;6.07;;;;;;;3.58;64.07;97370.28;5024051;28;20056;-73
2022/04/17 02:30:48;;;;;;;10.52;5.90;;;;;;;3.56;64.09;97359.78;5024915;28;20057;-73
2022/04/17 02:33:14;;;;;;;10.27;6.32;;;;;;;3.56;63.99;97362.47;5024650;28;20057;-74
2022/04/17 02:35:41;;;;;;;9.68;6.05;;;;;;;3.56;64.17;97358.97;5024593;28;20041;-74
2022/04/17 02:38:07;;;;;;;12.45;6.57;;;;;;;3.57;63.82;97365.97;5025920;28;20647;-73
2022/04/17 02:40:34;;;;;;;8.40;6.30;;;;;;;3.56;63.63;97365.16;5028438;28;20052;-73
2022/04/17 02:43:00;;;;;;;9.15;6.75;;;;;;;3.54;63.90;97361.88;5029202;28;20053;-74
2022/04/17 02:45:28;;;;;;;10.77;6.60;;;;;;;3.50;63.78;97365.31;5027808;28;20041;-73
2022/04/17 02:47:55;;;;;;;10.00;6.85;;;;;;;3.50;64.07;97359.94;5029022;28;20278;-73
2022/04/17 02:50:22;;;;;;;10.05;6.63;;;;;;;3.49;64.28;97352.91;5027697;28;20188;-73
2022/04/17 02:52:49;;;;;;;8.02;6.03;;;;;;;3.51;64.67;97350.81;5028460;28;20745;-74
2022/04/17 02:55:15;;;;;;;9.50;6.55;;;;;;;3.50;64.35;97351.84;5028222;28;20053;-74
2022/04/17 02:57:42;;;;;;;10.95;6.72;;;;;;;3.50;65.55;97343.78;5028159;28;20057;-73
2022/04/17 03:00:10;;;;;;;10.15;6.40;;;;;;;3.49;65.91;97347.53;5027224;28;20085;-74
2022/04/17 03:05:39;;;;;;;8.43;6.03;;;;;;;3.51;65.23;97350.81;5025002;28;20060;-74
2022/04/17 03:08:07;;;;;;;9.55;6.20;;;;;;;3.51;64.68;97350.81;5027547;28;20045;-73
2022/04/17 03:10:34;;;;;;;9.73;6.78;;;;;;;3.48;65.08;97343.22;5028156;28;20054;-73
2022/04/17 03:13:01;;;;;;;10.30;6.50;;;;;;;3.46;65.38;97339.97;5027878;28;20115;-73
2022/04/17 03:15:27;;;;;;;8.57;6.47;;;;;;;3.46;65.53;97337.28;5027578;28;20045;-73
2022/04/17 03:17:55;;;;;;;12.70;7.05;;;;;;;3.44;66.34;97342.88;5036519;28;20140;-73
2022/04/17 03:20:22;;;;;;;11.32;6.63;;;;;;;3.44;66.75;97342.88;5026745;28;20061;-74
2022/04/17 03:22:49;;;;;;;9.18;6.43;;;;;;;3.45;66.31;97346.44;5028144;28;20088;-73
2022/04/17 03:25:16;;;;;;;9.88;7.03;;;;;;;3.45;66.13;97349.13;5026514;28;20504;-73
2022/04/17 03:27:46;;;;;;;9.35;6.38;;;;;;;3.45;66.13;97346.44;5028331;28;20056;-73
2022/04/17 03:30:14;;;;;;;8.00;5.80;;;;;;;3.43;65.80;97343.16;5027009;28;20103;-73
2022/04/17 03:32:41;;;;;;;7.60;6.00;;;;;;;3.35;64.26;97342.53;5027806;28;20073;-73
2022/04/17 03:35:09;;;;;;;9.35;6.50;;;;;;;3.34;63.87;97340.06;5027084;28;20060;-73
2022/04/17 03:37:36;;;;;;;7.25;5.78;;;;;;;3.25;63.13;97334.28;5027664;28;20053;-73
2022/04/17 03:40:03;;;;;;;10.93;5.80;;;;;;;3.20;63.03;97333.41;5026962;28;20604;-73
2022/04/17 03:42:29;;;;;;;9.15;6.00;;;;;;;3.17;62.73;97328.50;5027269;28;20057;-73
2022/04/17 03:44:56;;;;;;;7.05;4.85;;;;;;;3.15;62.42;97334.16;5025736;28;20119;-74
2022/04/17 03:47:23;;;;;;;7.82;5.10;;;;;;;3.19;62.52;97327.22;5026336;28;20132;-74
2022/04/17 03:49:49;;;;;;;8.82;5.45;;;;;;;3.22;62.41;97326.69;5026297;28;20090;-73
2022/04/17 03:52:17;;;;;;;7.05;5.00;;;;;;;3.20;61.32;97320.75;5026400;28;20076;-73
2022/04/17 03:54:44;;;;;;;10.13;5.50;;;;;;;3.12;60.72;97321.16;5027593;28;20057;-73
2022/04/17 03:57:10;;;;;;;9.15;5.07;;;;;;;3.10;60.77;97320.59;5026469;28;20546;-73
2022/04/17 03:59:36;;;;;;;7.90;4.50;;;;;;;3.09;60.98;97311.72;5026576;28;20536;-73
2022/04/17 04:02:03;;;;;;;9.02;5.03;;;;;;;3.11;60.72;97316.84;5026247;28;20045;-73
2022/04/17 04:04:30;;;;;;;6.05;5.00;;;;;;;3.13;60.67;97317.41;5026603;28;20056;-74
2022/04/17 04:06:56;;;;;;;8.27;4.97;;;;;;;3.15;61.22;97320.69;5027269;28;20107;-74
2022/04/17 04:09:24;;;;;;;8.55;5.10;;;;;;;3.18;60.75;97319.38;5026244;28;20045;-73
2022/04/17 04:11:51;;;;;;;6.72;4.80;;;;;;;3.20;60.90;97328.84;5027318;28;20049;-74
2022/04/17 04:14:17;;;;;;;7.32;4.28;;;;;;;3.25;61.23;97326.22;5026256;28;20683;-73
2022/04/17 04:16:44;;;;;;;7.43;4.75;;;;;;;3.29;61.08;97329.22;5027519;28;20046;-73
2022/04/17 04:19:12;;;;;;;5.95;4.30;;;;;;;3.32;61.12;97334.94;5026434;28;20835;-73
2022/04/17 04:21:47;;;;;;;7.00;4.35;;;;;;;3.33;61.25;97328.47;5027188;28;20049;-74
2022/04/17 04:24:14;;;;;;;5.82;4.10;;;;;;;3.34;60.85;97330.13;5026920;28;20132;-73
2022/04/17 04:26:43;;;;;;;6.97;4.45;;;;;;;3.36;60.52;97333.38;5027084;28;20073;-74
2022/04/17 04:29:08;;;;;;;6.72;4.43;;;;;;;3.35;60.18;97317.47;5026894;28;20474;-74
2022/04/17 04:31:35;;;;;;;6.63;4.53;;;;;;;3.34;59.74;97319.34;5026846;28;20060;-74
2022/04/17 04:34:02;;;;;;;6.45;4.38;;;;;;;3.35;59.64;97322.88;5027072;28;20073;-73
2022/04/17 04:36:29;;;;;;;8.70;4.53;;;;;;;3.37;60.48;97318.84;5026389;28;20123;-73
2022/04/17 04:38:55;;;;;;;5.78;4.43;;;;;;;3.38;60.93;97323.16;5027320;28;20045;-74
2022/04/17 04:41:22;;;;;;;6.78;5.25;;;;;;;3.39;60.84;97319.44;5025791;28;20056;-73
2022/04/17 04:43:50;;;;;;;7.18;5.18;;;;;;;3.42;60.88;97317.28;5026689;28;20520;-73
2022/04/17 04:46:17;;;;;;;7.10;5.03;;;;;;;3.44;61.33;97317.84;5034074;28;20052;-73
2022/04/17 04:51:29;;;;;;;5.45;4.25;;;;;;;3.48;61.43;97319.78;5046311;28;20450;-73
2022/04/17 04:53:57;;;;;;;6.15;4.57;;;;;;;3.51;60.93;97323.88;5045972;28;20078;-73
2022/04/17 04:56:24;;;;;;;7.93;5.10;;;;;;;3.51;59.90;97324.69;5046472;28;20132;-73
2022/04/17 04:58:52;;;;;;;5.85;4.45;;;;;;;3.50;59.48;97330.31;5045976;28;20102;-73
2022/04/17 05:01:18;;;;;;;6.40;4.70;;;;;;;3.51;59.50;97321.19;5034842;28;20065;-73
2022/04/17 05:03:46;;;;;;;7.15;4.82;;;;;;;3.55;60.61;97322.31;5025864;28;20517;-75
2022/04/17 05:06:12;;;;;;;9.00;5.10;;;;;;;3.57;60.86;97323.69;5026168;28;20049;-76
2022/04/17 05:08:38;;;;;;;7.03;4.60;;;;;;;3.62;61.52;97325.66;5026104;28;20842;-73
2022/04/17 05:11:05;;;;;;;8.75;4.78;;;;;;;3.67;61.38;97323.84;5025868;28;20045;-75
2022/04/17 05:13:31;;;;;;;6.65;4.60;;;;;;;3.70;60.34;97319.81;5026221;28;20080;-73
2022/04/17 05:15:59;;;;;;;9.00;5.82;;;;;;;3.74;59.18;97336.28;5025589;28;20088;-73
2022/04/17 05:18:26;;;;;;;9.90;6.72;;;;;;;3.76;59.35;97343.06;5025999;28;20052;-73
2022/04/17 05:20:53;;;;;;;12.07;7.60;;;;;;;3.76;59.14;97342.22;5025390;28;20405;-74
2022/04/17 05:23:22;;;;;;;10.85;6.85;;;;;;;3.78;60.07;97338.25;5026273;28;20084;-73
2022/04/17 05:25:52;;;;;;;12.02;7.05;;;;;;;3.82;59.94;97336.69;5025493;28;20046;-75
2022/04/17 05:28:18;;;;;;;10.48;5.95;;;;;;;3.88;60.19;97332.97;5025747;28;20049;-75
2022/04/17 05:30:46;;;;;;;7.32;4.40;;;;;;;3.87;59.41;97328.66;5025113;28;20049;-75
2022/04/17 05:33:14;;;;;;;8.40;4.68;;;;;;;3.90;59.04;97327.34;5025980;28;20045;-73
2022/04/17 05:35:40;;;;;;;8.05;4.35;;;;;;;3.90;59.08;97328.16;5026229;28;20049;-75
2022/04/17 05:38:07;;;;;;;6.93;4.30;;;;;;;4.00;60.33;97321.25;5025109;28;20688;-74
2022/04/17 05:40:36;;;;;;;6.22;4.00;;;;;;;4.07;60.10;97321.84;5026203;28;20053;-73
2022/04/17 05:43:03;;;;;;;7.07;4.68;;;;;;;4.14;59.56;97319.81;5024878;28;20092;-73
2022/04/17 05:45:29;;;;;;;7.30;4.35;;;;;;;4.18;58.07;97319.03;5025398;28;20111;-74
2022/04/17 05:47:57;;;;;;;7.35;4.38;;;;;;;4.19;57.62;97326.06;5024966;28;20060;-74
2022/04/17 05:50:25;;;;;;;8.07;4.63;;;;;;;4.23;57.60;97329.06;5025314;28;20048;-74
2022/04/17 05:52:52;;;;;;;6.90;4.68;;;;;;;4.23;57.37;97330.94;5025243;28;20459;-74
2022/04/17 05:55:19;;;;;;;14.48;7.78;;;;;;;4.31;58.62;97339.38;5025382;28;20115;-73
2022/04/17 05:57:45;;;;;;;14.38;7.55;;;;;;;4.37;58.81;97343.75;5025670;28;20061;-73
2022/04/17 06:00:14;;;;;;;9.45;6.32;;;;;;;4.48;59.16;97339.28;5024570;28;20065;-73
2022/04/17 06:02:41;;;;;;;11.18;5.55;;;;;;;4.54;59.42;97332.06;5025916;28;20692;-73
2022/04/17 06:05:09;;;;;;;7.10;4.45;;;;;;;4.59;57.81;97334.81;5024501;28;20060;-74
2022/04/17 06:07:36;;;;;;;7.47;4.07;;;;;;;4.62;57.04;97339.69;5026109;28;20045;-75
2022/04/17 06:10:04;;;;;;;7.45;4.53;;;;;;;4.71;57.84;97338.97;5024170;28;20069;-74
2022/04/17 06:12:30;;;;;;;7.22;3.95;;;;;;;4.71;56.54;97338.16;5025257;28;20049;-74
2022/04/17 06:14:57;;;;;;;7.25;4.03;;;;;;;4.83;56.79;97340.69;5024577;28;20053;-75
2022/04/17 06:17:24;;;;;;;6.40;4.10;;;;;;;4.87;55.95;97334.53;5024882;28;20056;-74
2022/04/17 06:19:50;;;;;;;6.35;4.85;;;;;;;4.92;55.96;97339.16;5025144;28;20079;-73
2022/04/17 06:22:17;;;;;;;6.97;4.90;;;;;;;5.01;55.92;97337.59;5024640;28;20055;-73
2022/04/17 06:24:45;;;;;;;6.15;4.50;;;;;;;5.10;56.57;97338.75;5025293;28;20060;-74
2022/04/17 06:27:12;;;;;;;5.78;4.22;;;;;;;5.17;54.72;97330.44;5024243;28;20096;-73
2022/04/17 06:29:38;;;;;;;7.70;4.25;;;;;;;5.13;54.89;97330.16;5025490;28;20061;-73
2022/04/17 06:32:07;;;;;;;7.68;3.78;;;;;;;5.17;55.15;97327.75;5024026;28;20053;-73
2022/04/17 06:34:33;;;;;;;6.15;3.95;;;;;;;5.26;56.19;97333.47;5025445;28;20468;-74
2022/04/17 06:36:59;;;;;;;5.72;3.85;;;;;;;5.27;55.61;97330.50;5024577;28;20061;-74
2022/04/17 06:39:26;;;;;;;5.95;4.18;;;;;;;5.27;55.24;97333.19;5024644;28;20076;-73
2022/04/17 06:41:54;;;;;;;7.38;4.28;;;;;;;5.21;55.70;97326.13;5024679;28;20065;-73
2022/04/17 06:44:21;;;;;;;7.57;4.05;;;;;;;5.26;56.08;97331.56;5023988;28;20072;-73
2022/04/17 06:46:47;;;;;;;6.78;4.28;;;;;;;5.34;55.72;97331.09;5024898;28;20060;-73
2022/04/17 06:49:14;;;;;;;7.25;4.82;;;;;;;5.46;58.83;97329.00;5024674;28;20095;-73
2022/04/17 06:51:40;;;;;;;5.30;3.83;;;;;;;5.58;56.06;97327.97;5025142;28;20055;-73
2022/04/17 06:54:08;;;;;;;5.25;4.00;;;;;;;5.67;55.81;97340.75;5024047;28;20716;-73
2022/04/17 06:56:35;;;;;;;8.82;4.00;;;;;;;5.78;55.47;97338.09;5025454;28;20049;-74
2022/04/17 06:59:05;;;;;;;7.10;4.20;;;;;;;5.93;55.01;97328.19;5024467;28;20103;-74
2022/04/17 07:01:32;;;;;;;6.22;4.32;;;;;;;6.12;55.23;97338.56;5032086;28;20042;-73
2022/04/17 07:03:58;;;;;;;8.32;4.47;;;;;;;6.23;54.39;97334.78;5024574;28;20046;-73
2022/04/17 07:06:25;;;;;;;11.02;4.43;;;;;;;6.40;54.76;97339.97;5024325;28;20535;-73
2022/04/17 07:08:51;;;;;;;5.47;4.07;;;;;;;6.56;53.99;97347.03;5025121;28;20049;-74
2022/04/17 07:11:22;;;;;;;6.68;3.67;;;;;;;6.65;52.67;97340.03;5023701;28;20057;-74
2022/04/17 07:13:48;;;;;;;7.90;4.28;;;;;;;6.71;53.11;97343.56;5025011;28;20048;-74
2022/04/17 07:16:16;;;;;;;7.22;4.00;;;;;;;6.84;52.41;97332.22;5024634;28;20104;-74
2022/04/17 07:18:42;;;;;;;6.78;4.20;;;;;;;7.05;53.56;97339.25;5025616;28;20045;-73
2022/04/17 07:21:09;;;;;;;6.13;4.15;;;;;;;7.24;52.50;97330.56;5022729;28;20053;-73
2022/04/17 07:23:35;;;;;;;5.20;4.05;;;;;;;7.37;50.56;97327.31;5025292;28;20053;-74
2022/04/17 07:26:02;;;;;;;5.65;4.05;;;;;;;7.46;50.78;97336.47;5027076;28;20052;-73
2022/04/17 07:28:28;;;;;;;5.78;3.90;;;;;;;7.57;49.48;97329.97;5028207;28;20049;-73
2022/04/17 07:30:55;;;;;;;6.18;3.45;;;;;;;7.73;49.44;97338.06;5028057;28;20060;-73
2022/04/17 07:33:23;;;;;;;6.88;4.18;;;;;;;8.52;49.46;97329.06;5027824;28;20065;-73
2022/04/17 07:35:49;;;;;;;6.28;3.70;;;;;;;9.73;44.40;97324.81;5028633;28;20049;-73
2022/04/17 07:38:16;;;;;;;6.53;4.15;;;;;;;10.53;44.22;97326.84;5027126;28;20057;-74
2022/04/17 07:40:44;;;;;;;5.57;3.85;;;;;;;11.17;41.58;97314.41;5028130;28;20053;-74
2022/04/17 07:43:11;;;;;;;7.90;3.70;;;;;;;11.93;38.34;97320.44;5028096;28;20045;-73
2022/04/17 07:45:38;;;;;;;5.30;3.60;;;;;;;12.37;36.88;97319.81;5028639;28;20053;-75
2022/04/17 07:48:05;;;;;;;7.53;3.80;;;;;;;12.95;37.09;97323.72;5027348;28;20060;-73
2022/04/17 07:50:33;;;;;;;5.38;3.60;;;;;;;13.53;35.01;97320.13;5028215;28;20140;-74
2022/04/17 07:53:00;;;;;;;4.90;3.33;;;;;;;13.67;33.31;97334.50;5027715;28;20058;-74
2022/04/17 07:55:27;;;;;;;6.85;3.20;;;;;;;13.92;32.83;97318.53;5031309;28;20055;-75
2022/04/17 07:57:59;;;;;;;4.13;3.00;;;;;;;14.17;32.66;97317.00;5048077;28;20618;-74
2022/04/17 08:00:27;;;;;;;6.53;3.70;;;;;;;14.43;31.35;97317.09;5046443;28;20051;-74
2022/04/17 08:03:06;;;;;;;6.32;3.10;;;;;;;15.02;29.49;97317.47;5048233;28;20118;-74
2022/04/17 08:05:35;;;;;;;5.82;3.67;;;;;;;15.14;29.59;97304.75;5046921;28;20098;-74
2022/04/17 08:08:02;;;;;;;5.53;3.50;;;;;;;15.47;29.38;97306.16;5047430;28;20052;-73
2022/04/17 08:10:29;;;;;;;5.60;3.90;;;;;;;15.70;28.27;97296.56;5046752;28;20619;-73
2022/04/17 08:12:55;;;;;;;4.53;3.45;;;;;;;16.16;28.23;97300.44;5047548;28;20530;-74
2022/04/17 08:15:21;;;;;;;6.38;3.25;;;;;;;16.60;30.07;97292.72;5046552;28;20134;-74
2022/04/17 08:17:48;;;;;;;4.78;3.30;;;;;;;17.04;28.70;97296.78;5046804;28;20056;-74
2022/04/17 08:20:14;;;;;;;7.40;4.13;;;;;;;17.13;26.68;97293.97;5046945;28;20052;-73
2022/04/17 08:22:42;;;;;;;7.50;4.20;;;;;;;16.88;26.45;97302.09;5046535;28;20041;-75
2022/04/17 08:25:09;;;;;;;5.90;3.42;;;;;;;16.79;26.39;97304.09;5047055;28;20064;-74
2022/04/17 08:27:45;;;;;;;6.32;3.70;;;;;;;16.79;25.89;97298.59;5046311;28;20056;-73
2022/04/17 08:30:11;;;;;;;6.10;3.95;;;;;;;17.13;24.95;97293.97;5046469;28;20064;-74
2022/04/17 08:32:38;;;;;;;5.07;3.33;;;;;;;17.22;26.45;97294.66;5046436;28;20060;-74
2022/04/17 08:35:06;;;;;;;5.60;4.03;;;;;;;17.07;24.55;97292.53;5046235;28;20507;-74
2022/04/17 08:37:32;;;;;;;5.63;3.33;;;;;;;17.02;24.26;97293.59;5046719;28;20148;-74
2022/04/17 08:40:00;;;;;;;6.78;4.03;;;;;;;17.35;26.29;97285.34;5046348;28;20052;-74
2022/04/17 08:42:28;;;;;;;6.18;3.58;;;;;;;17.35;25.08;97290.03;5046554;28;20053;-74
2022/04/17 08:44:54;;;;;;;5.28;3.30;;;;;;;17.56;26.26;97282.53;5045539;28;20052;-75
2022/04/17 08:47:21;;;;;;;5.13;3.17;;;;;;;18.00;25.62;97280.88;5046671;28;20770;-74
2022/04/17 08:49:48;;;;;;;6.82;3.05;;;;;;;18.61;23.98;97285.56;5045450;28;20098;-75
2022/04/17 08:52:17;;;;;;;4.40;2.92;;;;;;;18.86;25.52;97289.13;5046021;28;20577;-75
2022/04/17 08:54:45;;;;;;;5.43;3.20;;;;;;;18.59;22.95;97279.59;5045827;28;20057;-75
2022/04/17 08:57:13;;;;;;;5.03;3.50;;;;;;;17.94;23.49;97279.50;5046077;28;20049;-74
2022/04/17 08:59:39;;;;;;;5.07;3.50;;;;;;;17.25;24.24;97273.94;5046096;28;20068;-74
2022/04/17 09:02:10;;;;;;;6.20;3.70;;;;;;;16.65;25.14;97278.78;5045497;28;20045;-73
2022/04/17 09:04:37;;;;;;;5.70;3.30;;;;;;;16.46;25.80;97265.50;5046251;28;20040;-74
2022/04/17 09:07:06;;;;;;;4.18;3.17;;;;;;;16.33;25.88;97267.34;5045063;28;20056;-74
2022/04/17 09:09:34;;;;;;;8.23;3.38;;;;;;;16.04;26.47;97259.13;5045949;28;20550;-74
2022/04/17 09:12:00;;;;;;;6.72;3.83;;;;;;;15.89;26.24;97261.28;5045824;28;20141;-74
2022/04/17 09:14:28;;;;;;;5.80;3.80;;;;;;;15.52;26.93;97264.78;5045633;28;20798;-74
2022/04/17 09:16:55;;;;;;;6.32;3.50;;;;;;;15.49;27.60;97249.78;5045184;28;20049;-74
2022/04/17 09:19:21;;;;;;;6.65;4.03;;;;;;;15.32;28.03;97250.63;5045723;28;20090;-74
2022/04/17 09:21:55;;;;;;;5.38;3.42;;;;;;;15.29;29.50;97250.47;5045151;28;20049;-74
2022/04/17 09:24:23;;;;;;;7.50;4.45;;;;;;;15.33;28.74;97246.75;5045190;28;20131;-74
2022/04/17 09:26:52;;;;;;;8.68;4.25;;;;;;;14.96;27.94;97242.78;5045841;28;20123;-74
2022/04/17 09:29:20;;;;;;;6.47;3.88;;;;;;;14.77;28.01;97245.88;5044579;28;20543;-74
2022/04/17 09:31:49;;;;;;;8.95;4.28;;;;;;;14.70;28.31;97242.81;5045777;28;20049;-75
2022/04/17 09:34:16;;;;;;;7.88;4.30;;;;;;;14.59;29.64;97227.81;5044745;28;20439;-75
2022/04/17 09:36:43;;;;;;;7.15;4.10;;;;;;;14.71;29.22;97218.94;5046139;28;20095;-74
2022/04/17 09:39:14;;;;;;;6.78;4.07;;;;;;;14.63;29.05;97225.25;5044301;28;20053;-74
2022/04/17 09:41:55;;;;;;;8.25;4.78;;;;;;;14.50;28.05;97224.25;5045772;28;20048;-74
2022/04/17 09:44:35;;;;;;;8.02;4.07;;;;;;;14.46;30.02;97221.34;5044682;28;20136;-75
2022/04/17 09:47:04;;;;;;;7.75;4.60;;;;;;;14.77;29.66;97207.50;5044741;28;20685;-74
2022/04/17 09:49:31;;;;;;;5.95;3.83;;;;;;;14.98;28.16;97206.81;5045314;28;20072;-75
2022/04/17 09:52:07;;;;;;;6.50;4.55;;;;;;;15.03;27.72;97209.38;5044561;28;20049;-74
2022/04/17 09:54:34;;;;;;;8.35;4.05;;;;;;;15.03;28.07;97204.69;5045297;28;20429;-74
2022/04/17 09:57:01;;;;;;;5.25;3.47;;;;;;;15.10;28.18;97205.03;5045429;28;20847;-74
2022/04/17 09:59:28;;;;;;;8.05;4.15;;;;;;;15.18;27.30;97206.13;5025386;28;20045;-76
2022/04/17 10:01:57;;;;;;;5.97;3.40;;;;;;;15.25;28.78;97198.22;5024591;28;20045;-74
2022/04/17 10:04:26;;;;;;;6.18;4.22;;;;;;;15.42;28.44;97193.78;5024906;28;20118;-75
2022/04/17 10:06:54;;;;;;;5.93;3.72;;;;;;;15.65;29.49;97186.91;5025322;28;20049;-74
2022/04/17 10:09:21;;;;;;;6.53;4.10;;;;;;;15.77;28.51;97180.75;5024429;28;20203;-75
2022/04/17 10:11:49;;;;;;;7.57;3.88;;;;;;;15.64;27.04;97188.06;5025161;28;20064;-74
2022/04/17 10:14:16;;;;;;;6.82;3.88;;;;;;;15.47;28.03;97179.88;5032037;28;20094;-74
2022/04/17 10:16:43;;;;;;;6.50;4.18;;;;;;;15.56;30.01;97180.66;5025361;28;20507;-74
2022/04/17 10:19:12;;;;;;;6.63;4.30;;;;;;;15.58;28.02;97170.16;5024168;28;20049;-74
2022/04/17 10:21:41;;;;;;;6.05;4.40;;;;;;;15.85;29.64;97155.97;5025014;28;20053;-75
2022/04/17 10:24:17;;;;;;;7.25;3.85;;;;;;;15.96;27.29;97161.06;5024435;28;20136;-75
2022/04/17 10:26:46;;;;;;;7.55;4.28;;;;;;;15.71;28.12;97147.16;5024957;28;20049;-74
2022/04/17 10:29:18;;;;;;;5.30;3.72;;;;;;;15.68;27.15;97153.31;5024915;28;20058;-74
2022/04/17 10:32:03;;;;;;;8.70;3.75;;;;;;;15.66;27.97;97147.38;5024491;28;20041;-74
2022/04/17 10:34:53;;;;;;;5.45;3.60;;;;;;;15.81;28.76;97146.78;5025428;28;20052;-75
2022/04/17 10:37:46;;;;;;;6.57;3.75;;;;;;;15.84;29.11;97146.13;5024383;28;20054;-74
2022/04/17 10:40:13;;;;;;;5.93;3.55;;;;;;;15.84;28.57;97150.81;5024053;28;20061;-75
2022/04/17 10:42:55;;;;;;;7.07;4.25;;;;;;;15.78;27.36;97135.66;5024783;28;20496;-74
2022/04/17 10:45:23;;;;;;;7.95;4.32;;;;;;;15.61;29.96;97131.88;5037963;28;20127;-74
2022/04/17 10:48:02;;;;;;;7.05;4.25;;;;;;;15.55;28.39;97132.34;5045216;28;20135;-74
2022/04/17 10:50:30;;;;;;;7.40;4.05;;;;;;;15.55;28.79;97110.41;5043987;28;20693;-75
2022/04/17 10:53:24;;;;;;;5.78;3.78;;;;;;;15.56;27.90;97128.50;5044771;28;20052;-74
2022/04/17 10:56:04;;;;;;;6.70;4.15;;;;;;;15.75;27.26;97122.59;5044810;28;20077;-75
2022/04/17 10:58:35;;;;;;;8.18;4.30;;;;;;;15.72;27.33;97126.81;5044550;28;20049;-74
2022/04/17 11:01:02;;;;;;;8.55;5.10;;;;;;;15.60;27.86;97132.16;5048355;28;20609;-73
2022/04/17 11:03:28;;;;;;;9.60;4.05;;;;;;;15.47;28.42;97125.00;5047859;28;20045;-74
2022/04/17 11:06:11;;;;;;;7.68;4.38;;;;;;;15.69;30.18;97121.97;5048701;28;20049;-73
2022/04/17 11:08:52;;;;;;;;;;;;;;;15.96;31.34;97109.69;5048414;28;20422;-73
2022/04/17 11:11:18;;;;;;;8.98;4.25;;;;;;;16.01;28.30;97105.94;5047505;28;19931;-74
2022/04/17 11:14:10;;;;;;;7.22;4.05;;;;;;;15.90;28.32;97114.56;5046883;28;20119;-74
2022/04/17 11:16:45;;;;;;;8.18;4.40;;;;;;;15.65;26.95;97107.31;5047696;28;20041;-74
2022/04/17 11:19:12;;;;;;;12.02;3.95;;;;;;;15.61;28.70;97107.16;5048386;28;20052;-75
2022/04/17 11:21:43;;;;;;;5.95;4.30;;;;;;;15.75;30.31;97104.19;5047963;28;20053;-73
2022/04/17 11:24:11;;;;;;;8.55;5.10;;;;;;;15.72;26.75;97098.56;5048165;28;20045;-74
2022/04/17 11:27:09;;;;;;;6.30;4.15;;;;;;;15.65;27.91;97115.53;5048082;28;20458;-74
2022/04/17 11:29:43;;;;;;;8.48;4.70;;;;;;;15.44;28.79;97098.19;5047394;28;20048;-74
2022/04/17 11:32:56;;;;;;;6.70;4.47;;;;;;;15.66;30.85;97089.72;5048205;28;20061;-73
2022/04/17 11:35:24;;;;;;;6.60;3.80;;;;;;;15.85;30.06;97098.28;5000724;28;20537;-74
2022/04/17 11:37:54;;;;;;;8.45;4.85;;;;;;;15.79;30.44;97085.91;5027948;28;20053;-77
2022/04/17 11:40:24;;;;;;;6.40;4.18;;;;;;;15.98;30.43;97090.16;5027504;28;20045;-74
2022/04/17 11:42:51;;;;;;;10.10;4.60;;;;;;;15.94;28.75;97078.22;5028058;28;20053;-73
2022/04/17 11:45:20;;;;;;;5.10;3.72;;;;;;;15.81;28.56;97075.38;5028215;28;20049;-74
2022/04/17 11:47:48;;;;;;;6.53;4.22;;;;;;;15.71;29.64;97081.25;5027129;28;20049;-74
2022/04/17 11:50:21;;;;;;;5.07;3.60;;;;;;;15.74;29.10;97080.59;5027722;28;20046;-73